createdAt,value
2023-01-01T00:00:42.902Z,0
2023-01-01T00:02:49.381Z,0
2023-01-01T00:03:52.943Z,0
2023-01-01T00:05:59.799Z,0
2023-01-01T00:08:07.441Z,0
2023-01-01T00:10:13.630Z,0
2023-01-01T00:11:16.159Z,0
2023-01-01T00:13:21.994Z,0
2023-01-01T00:15:27.833Z,0
2023-01-01T00:16:31.060Z,0
2023-01-01T00:17:34.276Z,0
2023-01-01T00:18:37.417Z,0
2023-01-01T00:20:44.514Z,0
2023-01-01T00:22:59.373Z,0
2023-01-01T00:24:02.736Z,0
2023-01-01T00:26:07.765Z,0
2023-01-01T00:28:13.592Z,0
2023-01-01T00:30:18.550Z,0
2023-01-01T00:31:22.445Z,0
2023-01-01T00:33:29.272Z,0
2023-01-01T00:35:36.062Z,0
2023-01-01T00:37:48.998Z,0
2023-01-01T00:38:52.486Z,0
2023-01-01T00:39:55.523Z,0
2023-01-01T00:40:59.173Z,0
2023-01-01T00:43:04.545Z,0
2023-01-01T00:44:08.026Z,0
2023-01-01T00:45:23.572Z,0
2023-01-01T00:46:27.391Z,0
2023-01-01T00:48:33.079Z,0
2023-01-01T00:50:40.375Z,0
2023-01-01T00:51:43.891Z,0
2023-01-01T00:52:47.531Z,0
2023-01-01T00:53:51.554Z,0
2023-01-01T00:55:59.444Z,0
2023-01-01T00:57:01.969Z,0
2023-01-01T00:58:05.283Z,0
2023-01-01T00:59:09.000Z,0
2023-01-01T01:01:15.530Z,0
2023-01-01T01:03:23.318Z,0
2023-01-01T01:04:26.136Z,0
2023-01-01T01:06:32.400Z,0
2023-01-01T01:08:40.693Z,0
2023-01-01T01:10:47.382Z,0
2023-01-01T01:11:50.406Z,0
2023-01-01T01:13:57.659Z,0
2023-01-01T01:16:04.283Z,0
2023-01-01T01:17:06.764Z,0
2023-01-01T01:18:09.818Z,0
2023-01-01T01:19:13.544Z,0
2023-01-01T01:21:19.948Z,0
2023-01-01T01:22:31.321Z,0
2023-01-01T01:23:34.803Z,0
2023-01-01T01:24:37.921Z,0
2023-01-01T01:26:44.304Z,0
2023-01-01T01:28:51.797Z,0
2023-01-01T01:30:57.715Z,0
2023-01-01T01:32:00.815Z,0
2023-01-01T01:34:28.026Z,0
2023-01-01T01:36:34.353Z,0
2023-01-01T01:38:41.388Z,0
2023-01-01T01:39:53.925Z,0
2023-01-01T01:40:57.091Z,0
2023-01-01T01:42:00.099Z,0
2023-01-01T01:43:02.575Z,0
2023-01-01T01:44:05.648Z,0
2023-01-01T01:46:12.109Z,0
2023-01-01T01:47:15.780Z,0
2023-01-01T01:49:23.529Z,0
2023-01-01T01:51:29.652Z,0
2023-01-01T01:52:32.572Z,0
2023-01-01T01:54:39.835Z,0
2023-01-01T01:56:46.254Z,0
2023-01-01T01:57:49.697Z,0
2023-01-01T01:59:56.109Z,0
2023-01-01T02:02:04.424Z,0
2023-01-01T02:03:08.364Z,0
2023-01-01T02:05:13.742Z,0
2023-01-01T02:07:19.622Z,0
2023-01-01T02:08:23.376Z,0
2023-01-01T02:09:27.185Z,0
2023-01-01T02:10:30.682Z,0
2023-01-01T02:12:37.117Z,0
2023-01-01T02:14:42.775Z,0
2023-01-01T02:15:45.854Z,0
2023-01-01T02:17:51.744Z,0
2023-01-01T02:19:58.163Z,0
2023-01-01T02:21:01.534Z,0
2023-01-01T02:22:04.324Z,0
2023-01-01T02:23:08.073Z,0
2023-01-01T02:25:14.393Z,0
2023-01-01T02:26:18.422Z,0
2023-01-01T02:28:24.311Z,0
2023-01-01T02:29:27.092Z,0
2023-01-01T02:31:33.894Z,0
2023-01-01T02:33:40.345Z,0
2023-01-01T02:34:44.078Z,0
2023-01-01T02:36:50.576Z,0
2023-01-01T02:38:56.400Z,0
2023-01-01T02:41:03.528Z,0
2023-01-01T02:42:07.039Z,0
2023-01-01T02:44:14.201Z,0
2023-01-01T02:47:22.256Z,0
2023-01-01T02:48:25.106Z,0
2023-01-01T02:49:28.448Z,0
2023-01-01T02:51:34.080Z,0
2023-01-01T02:52:37.201Z,0
2023-01-01T02:54:43.159Z,0
2023-01-01T02:55:45.630Z,0
2023-01-01T02:57:52.825Z,0
2023-01-01T02:58:55.573Z,0
2023-01-01T03:01:02.608Z,0
2023-01-01T03:03:09.940Z,0
2023-01-01T03:04:12.603Z,0
2023-01-01T03:06:18.778Z,0
2023-01-01T03:07:22.065Z,0
2023-01-01T03:08:25.510Z,0
2023-01-01T03:09:28.040Z,0
2023-01-01T03:11:33.129Z,0
2023-01-01T03:12:36.183Z,0
2023-01-01T03:14:43.043Z,0
2023-01-01T03:16:50.062Z,0
2023-01-01T03:17:52.297Z,0
2023-01-01T03:18:55.260Z,0
2023-01-01T03:19:58.254Z,0
2023-01-01T03:22:04.818Z,0
2023-01-01T03:23:08.225Z,0
2023-01-01T03:25:14.388Z,0
2023-01-01T03:27:20.944Z,0
2023-01-01T03:28:24.047Z,0
2023-01-01T03:29:27.537Z,0
2023-01-01T03:30:30.342Z,0
2023-01-01T03:32:36.752Z,0
2023-01-01T03:33:40.098Z,0
2023-01-01T03:35:47.827Z,0
2023-01-01T03:37:54.337Z,0
2023-01-01T03:38:56.576Z,0
2023-01-01T03:40:00.085Z,0
2023-01-01T03:41:03.471Z,0
2023-01-01T03:43:10.254Z,0
2023-01-01T03:44:13.669Z,0
2023-01-01T03:46:20.345Z,0
2023-01-01T03:48:26.201Z,0
2023-01-01T03:49:28.999Z,0
2023-01-01T03:50:31.522Z,0
2023-01-01T03:51:35.180Z,0
2023-01-01T03:52:38.070Z,0
2023-01-01T03:54:45.101Z,0
2023-01-01T03:56:51.570Z,0
2023-01-01T03:57:54.462Z,0
2023-01-01T04:00:01.668Z,0
2023-01-01T04:02:09.854Z,0
2023-01-01T04:03:13.238Z,0
2023-01-01T04:05:18.413Z,0
2023-01-01T04:07:24.354Z,0
2023-01-01T04:08:27.164Z,0
2023-01-01T04:09:30.674Z,0
2023-01-01T04:10:33.690Z,0
2023-01-01T04:12:40.077Z,0
2023-01-01T04:13:42.576Z,0
2023-01-01T04:14:45.311Z,0
2023-01-01T04:15:49.477Z,0
2023-01-01T04:17:56.391Z,0
2023-01-01T04:19:00.135Z,0
2023-01-01T04:20:03.355Z,0
2023-01-01T04:21:06.980Z,0
2023-01-01T04:23:12.915Z,0
2023-01-01T04:25:19.287Z,0
2023-01-01T04:26:22.983Z,0
2023-01-01T04:27:26.594Z,0
2023-01-01T04:28:30.071Z,0
2023-01-01T04:31:38.191Z,0
2023-01-01T04:32:41.959Z,0
2023-01-01T04:33:45.595Z,0
2023-01-01T04:35:51.353Z,0
2023-01-01T04:37:57.260Z,0
2023-01-01T04:39:00.706Z,0
2023-01-01T04:41:06.686Z,0
2023-01-01T04:43:13.220Z,0
2023-01-01T04:45:19.067Z,0
2023-01-01T04:46:21.777Z,0
2023-01-01T04:48:28.988Z,0
2023-01-01T04:50:34.926Z,0
2023-01-01T04:52:41.753Z,0
2023-01-01T04:53:45.481Z,0
2023-01-01T04:55:50.846Z,0
2023-01-01T04:57:55.856Z,0
2023-01-01T05:00:02.393Z,0
2023-01-01T05:01:06.598Z,0
2023-01-01T05:03:14.721Z,0
2023-01-01T05:05:21.207Z,0
2023-01-01T05:07:28.122Z,0
2023-01-01T05:08:31.112Z,0
2023-01-01T05:10:37.672Z,0
2023-01-01T05:12:43.789Z,0
2023-01-01T05:13:47.061Z,0
2023-01-01T05:14:50.705Z,0
2023-01-01T05:15:53.694Z,0
2023-01-01T05:17:59.955Z,0
2023-01-01T05:20:07.514Z,0
2023-01-01T05:21:10.861Z,0
2023-01-01T05:23:16.669Z,0
2023-01-01T05:25:21.974Z,0
2023-01-01T05:26:24.970Z,0
2023-01-01T05:27:27.519Z,0
2023-01-01T05:28:30.829Z,0
2023-01-01T05:30:36.401Z,0
2023-01-01T05:31:39.662Z,0
2023-01-01T05:32:42.890Z,0
2023-01-01T05:33:45.916Z,0
2023-01-01T05:34:49.302Z,0
2023-01-01T05:35:53.339Z,0
2023-01-01T05:36:56.492Z,0
2023-01-01T05:37:59.968Z,0
2023-01-01T05:39:02.759Z,0
2023-01-01T05:41:09.594Z,0
2023-01-01T05:43:15.170Z,0
2023-01-01T05:44:18.187Z,0
2023-01-01T05:46:25.046Z,0
2023-01-01T05:48:34.409Z,0
2023-01-01T05:50:41.283Z,0
2023-01-01T05:51:45.056Z,0
2023-01-01T05:53:50.932Z,0
2023-01-01T05:54:54.624Z,0
2023-01-01T05:55:57.044Z,0
2023-01-01T05:58:03.836Z,0
2023-01-01T05:59:06.821Z,0
2023-01-01T06:01:13.994Z,0
2023-01-01T06:03:19.836Z,0
2023-01-01T06:05:24.718Z,0
2023-01-01T06:06:27.299Z,0
2023-01-01T06:08:34.933Z,0
2023-01-01T06:10:41.520Z,0
2023-01-01T06:12:46.831Z,0
2023-01-01T06:13:50.196Z,0
2023-01-01T06:15:55.525Z,0
2023-01-01T06:18:01.888Z,0
2023-01-01T06:20:08.062Z,0
2023-01-01T06:21:12.069Z,0
2023-01-01T06:23:19.646Z,0
2023-01-01T06:25:25.237Z,0
2023-01-01T06:27:31.045Z,0
2023-01-01T06:28:34.448Z,0
2023-01-01T06:30:40.823Z,0
2023-01-01T06:32:47.322Z,0
2023-01-01T06:34:52.635Z,0
2023-01-01T06:35:55.688Z,0
2023-01-01T06:37:08.543Z,0
2023-01-01T06:38:11.642Z,0
2023-01-01T06:40:18.784Z,0
2023-01-01T06:42:35.348Z,0
2023-01-01T06:43:38.655Z,0
2023-01-01T06:44:42.131Z,0
2023-01-01T06:45:45.640Z,0
2023-01-01T06:47:51.891Z,0
2023-01-01T06:48:55.268Z,0
2023-01-01T06:51:01.169Z,0
2023-01-01T06:53:06.445Z,0
2023-01-01T06:54:09.563Z,0
2023-01-01T06:55:13.064Z,0
2023-01-01T06:56:16.790Z,0
2023-01-01T06:58:22.421Z,0
2023-01-01T07:00:28.580Z,0
2023-01-01T07:01:32.513Z,0
2023-01-01T07:03:39.990Z,0
2023-01-01T07:05:45.851Z,0
2023-01-01T07:07:51.833Z,0
2023-01-01T07:08:54.839Z,0
2023-01-01T07:11:01.601Z,0
2023-01-01T07:13:08.326Z,0
2023-01-01T07:15:13.963Z,0
2023-01-01T07:16:17.908Z,0
2023-01-01T07:18:24.712Z,0
2023-01-01T07:20:31.874Z,1
2023-01-01T07:22:38.194Z,1
2023-01-01T07:23:40.984Z,1
2023-01-01T07:25:48.203Z,1
2023-01-01T07:27:55.347Z,1
2023-01-01T07:29:10.148Z,2
2023-01-01T07:30:13.442Z,2
2023-01-01T07:31:16.753Z,2
2023-01-01T07:33:22.400Z,3
2023-01-01T07:35:28.762Z,4
2023-01-01T07:37:35.203Z,5
2023-01-01T07:38:37.523Z,5
2023-01-01T07:40:44.527Z,6
2023-01-01T07:42:51.477Z,6
2023-01-01T07:44:57.626Z,7
2023-01-01T07:46:00.726Z,7
2023-01-01T07:48:07.004Z,8
2023-01-01T07:50:12.833Z,9
2023-01-01T07:52:19.371Z,10
2023-01-01T07:53:23.121Z,11
2023-01-01T07:55:28.855Z,12
2023-01-01T07:57:34.953Z,14
2023-01-01T07:59:41.969Z,17
2023-01-01T08:00:45.635Z,18
2023-01-01T08:02:54.387Z,19
2023-01-01T08:05:01.254Z,18
2023-01-01T08:07:06.051Z,19
2023-01-01T08:08:09.689Z,18
2023-01-01T08:10:16.734Z,14
2023-01-01T08:12:23.232Z,13
2023-01-01T08:14:30.442Z,15
2023-01-01T08:15:33.515Z,16
2023-01-01T08:16:36.424Z,18
2023-01-01T08:17:48.785Z,20
2023-01-01T08:19:55.534Z,20
2023-01-01T08:22:01.428Z,20
2023-01-01T08:23:09.844Z,21
2023-01-01T08:24:12.591Z,22
2023-01-01T08:25:15.727Z,22
2023-01-01T08:27:20.789Z,26
2023-01-01T08:29:27.737Z,32
2023-01-01T08:30:31.304Z,34
2023-01-01T08:31:35.079Z,35
2023-01-01T08:32:38.798Z,36
2023-01-01T08:34:45.124Z,36
2023-01-01T08:36:59.308Z,35
2023-01-01T08:38:02.532Z,34
2023-01-01T08:40:07.987Z,38
2023-01-01T08:42:14.920Z,45
2023-01-01T08:44:21.185Z,41
2023-01-01T08:45:24.734Z,39
2023-01-01T08:47:31.191Z,36
2023-01-01T08:49:37.342Z,48
2023-01-01T08:51:43.523Z,28
2023-01-01T08:52:45.968Z,30
2023-01-01T08:54:55.540Z,30
2023-01-01T08:57:02.107Z,32
2023-01-01T08:59:07.870Z,38
2023-01-01T09:00:11.344Z,45
2023-01-01T09:02:20.366Z,58
2023-01-01T09:04:27.541Z,58
2023-01-01T09:06:33.215Z,122
2023-01-01T09:07:36.259Z,98
2023-01-01T09:08:39.976Z,66
2023-01-01T09:09:42.780Z,62
2023-01-01T09:11:49.098Z,107
2023-01-01T09:12:52.101Z,115
2023-01-01T09:13:55.832Z,124
2023-01-01T09:14:59.271Z,112
2023-01-01T09:17:06.224Z,109
2023-01-01T09:18:09.979Z,96
2023-01-01T09:19:12.794Z,91
2023-01-01T09:20:15.816Z,86
2023-01-01T09:22:21.612Z,70
2023-01-01T09:23:24.912Z,52
2023-01-01T09:24:27.903Z,43
2023-01-01T09:25:31.716Z,39
2023-01-01T09:27:37.480Z,38
2023-01-01T09:29:43.983Z,57
2023-01-01T09:30:47.133Z,37
2023-01-01T09:32:55.328Z,47
2023-01-01T09:35:02.141Z,27
2023-01-01T09:36:05.142Z,24
2023-01-01T09:38:11.324Z,20
2023-01-01T09:40:17.521Z,22
2023-01-01T09:41:20.559Z,26
2023-01-01T09:43:27.342Z,27
2023-01-01T09:44:30.108Z,30
2023-01-01T09:45:33.429Z,35
2023-01-01T09:46:36.549Z,38
2023-01-01T09:48:43.091Z,35
2023-01-01T09:50:49.067Z,34
2023-01-01T09:52:00.566Z,34
2023-01-01T09:53:04.126Z,36
2023-01-01T09:54:07.390Z,37
2023-01-01T09:56:13.185Z,36
2023-01-01T09:57:22.213Z,39
2023-01-01T09:58:24.975Z,42
2023-01-01T09:59:28.478Z,44
2023-01-01T10:01:35.737Z,51
2023-01-01T10:02:38.779Z,56
2023-01-01T10:04:46.478Z,60
2023-01-01T10:06:53.093Z,64
2023-01-01T10:07:55.531Z,67
2023-01-01T10:10:01.518Z,63
2023-01-01T10:11:04.887Z,67
2023-01-01T10:13:10.123Z,61
2023-01-01T10:14:11.992Z,57
2023-01-01T10:15:14.422Z,56
2023-01-01T10:16:27.393Z,54
2023-01-01T10:18:34.387Z,47
2023-01-01T10:19:37.717Z,41
2023-01-01T10:21:49.347Z,33
2023-01-01T10:22:52.610Z,35
2023-01-01T10:23:55.682Z,36
2023-01-01T10:24:58.840Z,36
2023-01-01T10:27:03.984Z,29
2023-01-01T10:28:06.713Z,27
2023-01-01T10:30:11.317Z,26
2023-01-01T10:32:17.715Z,27
2023-01-01T10:34:24.088Z,29
2023-01-01T10:35:32.475Z,28
2023-01-01T10:36:35.858Z,25
2023-01-01T10:37:39.340Z,25
2023-01-01T10:39:45.347Z,30
2023-01-01T10:40:48.699Z,32
2023-01-01T10:42:54.773Z,36
2023-01-01T10:45:00.764Z,35
2023-01-01T10:46:04.205Z,34
2023-01-01T10:48:10.921Z,33
2023-01-01T10:50:17.761Z,33
2023-01-01T10:52:23.875Z,34
2023-01-01T10:53:27.432Z,34
2023-01-01T10:55:36.963Z,34
2023-01-01T10:57:43.302Z,34
2023-01-01T10:59:56.179Z,35
2023-01-01T11:00:59.902Z,34
2023-01-01T11:03:07.398Z,39
2023-01-01T11:05:23.734Z,42
2023-01-01T11:06:27.094Z,43
2023-01-01T11:08:34.129Z,50
2023-01-01T11:10:40.893Z,56
2023-01-01T11:11:43.615Z,56
2023-01-01T11:13:16.387Z,63
2023-01-01T11:14:20.030Z,74
2023-01-01T11:16:27.003Z,86
2023-01-01T11:18:33.809Z,83
2023-01-01T11:19:36.201Z,87
2023-01-01T11:20:39.563Z,92
2023-01-01T11:21:42.842Z,93
2023-01-01T11:22:46.315Z,95
2023-01-01T11:23:50.253Z,92
2023-01-01T11:24:53.244Z,87
2023-01-01T11:26:59.363Z,98
2023-01-01T11:28:02.344Z,99
2023-01-01T11:30:07.853Z,101
2023-01-01T11:32:14.574Z,94
2023-01-01T11:33:18.016Z,96
2023-01-01T11:35:23.733Z,106
2023-01-01T11:37:29.889Z,108
2023-01-01T11:39:36.715Z,102
2023-01-01T11:40:39.857Z,110
2023-01-01T11:42:45.931Z,138
2023-01-01T11:44:51.508Z,169
2023-01-01T11:45:54.819Z,252
2023-01-01T11:47:59.754Z,273
2023-01-01T11:50:06.480Z,123
2023-01-01T11:51:09.253Z,99
2023-01-01T11:53:15.440Z,78
2023-01-01T11:55:23.123Z,101
2023-01-01T11:56:25.656Z,155
2023-01-01T11:58:32.389Z,195
2023-01-01T12:00:38.191Z,147
2023-01-01T12:01:41.970Z,142
2023-01-01T12:02:45.485Z,145
2023-01-01T12:03:49.100Z,156
2023-01-01T12:05:55.736Z,153
2023-01-01T12:06:58.805Z,145
2023-01-01T12:09:05.298Z,150
2023-01-01T12:10:08.777Z,145
2023-01-01T12:11:12.910Z,128
2023-01-01T12:12:15.984Z,121
2023-01-01T12:14:22.522Z,134
2023-01-01T12:15:25.531Z,132
2023-01-01T12:17:31.845Z,128
2023-01-01T12:19:37.583Z,127
2023-01-01T12:20:40.969Z,127
2023-01-01T12:21:54.378Z,127
2023-01-01T12:22:56.937Z,149
2023-01-01T12:25:02.157Z,138
2023-01-01T12:26:05.619Z,140
2023-01-01T12:27:13.549Z,149
2023-01-01T12:28:15.776Z,148
2023-01-01T12:30:21.328Z,179
2023-01-01T12:31:25.616Z,184
2023-01-01T12:33:31.967Z,202
2023-01-01T12:35:37.631Z,171
2023-01-01T12:36:41.311Z,164
2023-01-01T12:38:46.905Z,216
2023-01-01T12:39:49.925Z,184
2023-01-01T12:41:56.041Z,147
2023-01-01T12:43:00.089Z,157
2023-01-01T12:44:02.804Z,135
2023-01-01T12:45:05.919Z,137
2023-01-01T12:46:09.222Z,144
2023-01-01T12:47:12.295Z,158
2023-01-01T12:48:15.701Z,152
2023-01-01T12:50:22.551Z,113
2023-01-01T12:51:25.627Z,105
2023-01-01T12:53:31.439Z,119
2023-01-01T12:55:37.558Z,97
2023-01-01T12:56:41.183Z,91
2023-01-01T12:58:48.773Z,93
2023-01-01T13:00:54.321Z,126
2023-01-01T13:01:58.042Z,103
2023-01-01T13:03:02.526Z,101
2023-01-01T13:04:05.841Z,89
2023-01-01T13:06:12.020Z,81
2023-01-01T13:07:14.737Z,129
2023-01-01T13:08:17.732Z,99
2023-01-01T13:09:21.104Z,106
2023-01-01T13:11:27.062Z,73
2023-01-01T13:12:30.801Z,71
2023-01-01T13:14:37.685Z,73
2023-01-01T13:16:43.982Z,63
2023-01-01T13:17:46.490Z,66
2023-01-01T13:19:52.342Z,58
2023-01-01T13:21:58.676Z,59
2023-01-01T13:24:05.221Z,64
2023-01-01T13:25:08.576Z,65
2023-01-01T13:27:14.738Z,69
2023-01-01T13:29:20.550Z,66
2023-01-01T13:30:24.142Z,64
2023-01-01T13:32:30.837Z,60
2023-01-01T13:34:37.148Z,57
2023-01-01T13:35:40.890Z,55
2023-01-01T13:37:48.096Z,51
2023-01-01T13:38:51.248Z,52
2023-01-01T13:39:54.682Z,53
2023-01-01T13:40:57.393Z,52
2023-01-01T13:43:06.733Z,51
2023-01-01T13:44:09.261Z,50
2023-01-01T13:45:12.917Z,49
2023-01-01T13:46:17.008Z,47
2023-01-01T13:47:19.860Z,48
2023-01-01T13:48:22.705Z,45
2023-01-01T13:49:26.108Z,45
2023-01-01T13:50:29.814Z,44
2023-01-01T13:52:09.788Z,44
2023-01-01T13:53:12.517Z,45
2023-01-01T13:55:18.101Z,45
2023-01-01T13:56:21.182Z,46
2023-01-01T13:57:23.867Z,47
2023-01-01T13:58:26.882Z,48
2023-01-01T13:59:30.321Z,47
2023-01-01T14:01:40.133Z,43
2023-01-01T14:03:47.013Z,36
2023-01-01T14:04:49.534Z,34
2023-01-01T14:06:56.261Z,34
2023-01-01T14:09:03.310Z,32
2023-01-01T14:10:06.661Z,31
2023-01-01T14:12:13.464Z,29
2023-01-01T14:13:16.566Z,29
2023-01-01T14:14:19.548Z,29
2023-01-01T14:15:22.912Z,29
2023-01-01T14:17:30.627Z,29
2023-01-01T14:18:34.017Z,29
2023-01-01T14:19:36.743Z,28
2023-01-01T14:20:40.131Z,27
2023-01-01T14:22:46.120Z,26
2023-01-01T14:23:49.199Z,25
2023-01-01T14:25:54.641Z,24
2023-01-01T14:28:01.071Z,22
2023-01-01T14:30:05.951Z,21
2023-01-01T14:31:14.030Z,21
2023-01-01T14:33:21.355Z,20
2023-01-01T14:35:28.478Z,19
2023-01-01T14:37:34.717Z,18
2023-01-01T14:38:37.239Z,16
2023-01-01T14:40:43.507Z,15
2023-01-01T14:42:49.778Z,14
2023-01-01T14:43:53.068Z,14
2023-01-01T14:46:02.531Z,13
2023-01-01T14:48:10.089Z,12
2023-01-01T14:50:17.534Z,11
2023-01-01T14:51:20.538Z,10
2023-01-01T14:53:27.654Z,9
2023-01-01T14:55:34.159Z,8
2023-01-01T14:56:37.173Z,7
2023-01-01T14:57:40.574Z,7
2023-01-01T14:58:43.115Z,6
2023-01-01T15:00:51.184Z,5
2023-01-01T15:01:55.458Z,5
2023-01-01T15:04:01.790Z,4
2023-01-01T15:06:08.090Z,4
2023-01-01T15:07:11.464Z,3
2023-01-01T15:09:17.106Z,2
2023-01-01T15:11:31.690Z,2
2023-01-01T15:13:37.211Z,1
2023-01-01T15:14:40.552Z,1
2023-01-01T15:16:48.531Z,1
2023-01-01T15:18:54.433Z,1
2023-01-01T15:19:58.064Z,0
2023-01-01T15:21:02.077Z,0
2023-01-01T15:22:05.079Z,0
2023-01-01T15:24:15.595Z,0
2023-01-01T15:25:18.491Z,0
2023-01-01T15:26:21.580Z,0
2023-01-01T15:27:25.386Z,0
2023-01-01T15:29:31.853Z,0
2023-01-01T15:30:35.353Z,0
2023-01-01T15:32:42.656Z,0
2023-01-01T15:34:49.391Z,0
2023-01-01T15:36:56.911Z,0
2023-01-01T15:38:00.294Z,0
2023-01-01T15:40:06.866Z,0
2023-01-01T15:42:12.167Z,0
2023-01-01T15:43:15.175Z,0
2023-01-01T15:44:18.200Z,0
2023-01-01T15:45:21.529Z,0
2023-01-01T15:46:34.516Z,0
2023-01-01T15:47:36.965Z,0
2023-01-01T15:48:39.990Z,0
2023-01-01T15:50:46.665Z,0
2023-01-01T15:52:57.662Z,0
2023-01-01T15:55:04.020Z,0
2023-01-01T15:56:07.045Z,0
2023-01-01T15:58:12.845Z,0
2023-01-01T16:00:19.569Z,0
2023-01-01T16:01:23.753Z,0
2023-01-01T16:02:27.952Z,0
2023-01-01T16:03:31.480Z,0
2023-01-01T16:05:37.884Z,0
2023-01-01T16:06:40.161Z,0
2023-01-01T16:08:46.402Z,0
2023-01-01T16:09:59.641Z,0
2023-01-01T16:11:02.721Z,0
2023-01-01T16:13:08.980Z,0
2023-01-01T16:15:15.856Z,0
2023-01-01T16:16:19.010Z,0
2023-01-01T16:18:25.423Z,0
2023-01-01T16:20:31.356Z,0
2023-01-01T16:21:34.755Z,0
2023-01-01T16:23:42.153Z,0
2023-01-01T16:25:49.288Z,0
2023-01-01T16:27:55.948Z,0
2023-01-01T16:28:58.940Z,0
2023-01-01T16:31:05.185Z,0
2023-01-01T16:33:10.696Z,0
2023-01-01T16:35:16.589Z,0
2023-01-01T16:36:19.661Z,0
2023-01-01T16:38:26.652Z,0
2023-01-01T16:40:40.103Z,0
2023-01-01T16:41:43.558Z,0
2023-01-01T16:42:46.572Z,0
2023-01-01T16:43:50.207Z,0
2023-01-01T16:44:52.931Z,0
2023-01-01T16:45:55.904Z,0
2023-01-01T16:48:02.935Z,0
2023-01-01T16:49:06.108Z,0
2023-01-01T16:50:08.917Z,0
2023-01-01T16:51:11.955Z,0
2023-01-01T16:53:17.743Z,0
2023-01-01T16:54:21.205Z,0
2023-01-01T16:55:24.679Z,0
2023-01-01T16:56:28.725Z,0
2023-01-01T16:59:05.096Z,0
2023-01-01T17:01:12.527Z,0
2023-01-01T17:03:19.956Z,0
2023-01-01T17:04:23.265Z,0
2023-01-01T17:05:26.373Z,0
2023-01-01T17:06:29.528Z,0
2023-01-01T17:08:36.288Z,0
2023-01-01T17:09:39.340Z,0
2023-01-01T17:10:42.502Z,0
2023-01-01T17:11:46.087Z,0
2023-01-01T17:13:52.529Z,0
2023-01-01T17:16:00.477Z,0
2023-01-01T17:17:03.012Z,0
2023-01-01T17:19:19.681Z,0
2023-01-01T17:21:26.947Z,0
2023-01-01T17:22:36.397Z,0
2023-01-01T17:23:40.169Z,0
2023-01-01T17:25:47.368Z,0
2023-01-01T17:26:51.196Z,0
2023-01-01T17:29:02.483Z,0
2023-01-01T17:30:05.940Z,0
2023-01-01T17:31:09.426Z,0
2023-01-01T17:33:15.615Z,0
2023-01-01T17:34:18.444Z,0
2023-01-01T17:36:23.645Z,0
2023-01-01T17:38:30.845Z,0
2023-01-01T17:40:39.577Z,0
2023-01-01T17:41:43.490Z,0
2023-01-01T17:43:50.718Z,0
2023-01-01T17:45:57.183Z,0
2023-01-01T17:48:02.550Z,0
2023-01-01T17:49:05.355Z,0
2023-01-01T17:50:08.509Z,0
2023-01-01T17:51:11.782Z,0
2023-01-01T17:53:18.030Z,0
2023-01-01T17:54:21.132Z,0
2023-01-01T17:55:24.539Z,0
2023-01-01T17:56:27.883Z,0
2023-01-01T17:58:37.997Z,0
2023-01-01T18:00:44.178Z,0
2023-01-01T18:01:48.598Z,0
2023-01-01T18:03:55.556Z,0
2023-01-01T18:06:01.899Z,0
2023-01-01T18:08:10.800Z,0
2023-01-01T18:09:13.668Z,0
2023-01-01T18:11:20.461Z,0
2023-01-01T18:13:27.963Z,0
2023-01-01T18:15:33.990Z,0
2023-01-01T18:16:37.393Z,0
2023-01-01T18:18:45.010Z,0
2023-01-01T18:20:53.239Z,0
2023-01-01T18:23:01.715Z,0
2023-01-01T18:24:07.115Z,0
2023-01-01T18:26:17.428Z,0
2023-01-01T18:27:24.550Z,0
2023-01-01T18:28:31.068Z,0
2023-01-01T18:30:39.672Z,0
2023-01-01T18:32:45.740Z,0
2023-01-01T18:33:48.629Z,0
2023-01-01T18:35:54.861Z,0
2023-01-01T18:38:01.239Z,0
2023-01-01T18:39:04.371Z,0
2023-01-01T18:41:11.093Z,0
2023-01-01T18:42:14.480Z,0
2023-01-01T18:44:21.601Z,0
2023-01-01T18:46:29.589Z,0
2023-01-01T18:48:36.162Z,0
2023-01-01T18:49:39.248Z,0
2023-01-01T18:51:45.494Z,0
2023-01-01T18:53:50.750Z,0
2023-01-01T18:54:53.751Z,0
2023-01-01T18:57:00.126Z,0
2023-01-01T18:59:06.380Z,0
2023-01-01T19:00:09.457Z,0
2023-01-01T19:02:17.193Z,0
2023-01-01T19:04:23.317Z,0
2023-01-01T19:05:26.796Z,0
2023-01-01T19:06:29.915Z,0
2023-01-01T19:07:32.679Z,0
2023-01-01T19:09:39.477Z,0
2023-01-01T19:10:42.779Z,0
2023-01-01T19:12:48.349Z,0
2023-01-01T19:14:53.939Z,0
2023-01-01T19:15:57.873Z,0
2023-01-01T19:18:05.477Z,0
2023-01-01T19:20:11.364Z,0
2023-01-01T19:22:17.461Z,0
2023-01-01T19:23:20.806Z,0
2023-01-01T19:25:27.837Z,0
2023-01-01T19:27:34.336Z,0
2023-01-01T19:28:37.068Z,0
2023-01-01T19:30:43.708Z,0
2023-01-01T19:32:50.698Z,0
2023-01-01T19:33:54.332Z,0
2023-01-01T19:35:59.886Z,0
2023-01-01T19:38:05.761Z,0
2023-01-01T19:40:12.633Z,0
2023-01-01T19:41:16.372Z,0
2023-01-01T19:43:22.887Z,0
2023-01-01T19:45:30.920Z,0
2023-01-01T19:47:37.528Z,0
2023-01-01T19:48:41.444Z,0
2023-01-01T19:50:46.669Z,0
2023-01-01T19:52:52.780Z,0
2023-01-01T19:54:59.235Z,0
2023-01-01T19:56:02.610Z,0
2023-01-01T19:58:07.854Z,0
2023-01-01T20:00:14.481Z,0
2023-01-01T20:02:51.486Z,0
2023-01-01T20:04:00.922Z,0
2023-01-01T20:05:04.765Z,0
2023-01-01T20:06:08.459Z,0
2023-01-01T20:08:14.799Z,0
2023-01-01T20:10:20.907Z,0
2023-01-01T20:12:26.432Z,0
2023-01-01T20:13:30.152Z,0
2023-01-01T20:15:36.053Z,0
2023-01-01T20:17:42.384Z,0
2023-01-01T20:19:49.944Z,0
2023-01-01T20:20:52.663Z,0
2023-01-01T20:22:58.477Z,0
2023-01-01T20:25:04.156Z,0
2023-01-01T20:27:10.891Z,0
2023-01-01T20:28:13.954Z,0
2023-01-01T20:30:19.877Z,0
2023-01-01T20:32:26.283Z,0
2023-01-01T20:34:32.922Z,0
2023-01-01T20:35:36.703Z,0
2023-01-01T20:36:40.129Z,0
2023-01-01T20:37:43.465Z,0
2023-01-01T20:39:49.372Z,0
2023-01-01T20:40:52.727Z,0
2023-01-01T20:41:56.755Z,0
2023-01-01T20:42:59.841Z,0
2023-01-01T20:45:06.099Z,0
2023-01-01T20:46:09.345Z,0
2023-01-01T20:47:12.221Z,0
2023-01-01T20:48:21.553Z,0
2023-01-01T20:49:24.176Z,0
2023-01-01T20:50:26.987Z,0
2023-01-01T20:52:34.154Z,0
2023-01-01T20:54:40.611Z,0
2023-01-01T20:55:43.362Z,0
2023-01-01T20:57:50.088Z,0
2023-01-01T20:59:39.264Z,0
2023-01-01T21:00:42.627Z,0
2023-01-01T21:01:46.594Z,0
2023-01-01T21:02:50.839Z,0
2023-01-01T21:04:56.147Z,0
2023-01-01T21:05:59.644Z,0
2023-01-01T21:07:03.578Z,0
2023-01-01T21:08:05.819Z,0
2023-01-01T21:10:12.296Z,0
2023-01-01T21:11:15.286Z,0
2023-01-01T21:12:18.576Z,0
2023-01-01T21:13:21.553Z,0
2023-01-01T21:15:27.313Z,0
2023-01-01T21:16:30.637Z,0
2023-01-01T21:18:37.902Z,0
2023-01-01T21:20:44.305Z,0
2023-01-01T21:21:47.742Z,0
2023-01-01T21:22:51.907Z,0
2023-01-01T21:23:55.520Z,0
2023-01-01T21:25:53.352Z,0
2023-01-01T21:26:57.218Z,0
2023-01-01T21:29:03.645Z,0
2023-01-01T21:31:09.711Z,0
2023-01-01T21:32:13.474Z,0
2023-01-01T21:34:19.671Z,0
2023-01-01T21:36:25.242Z,0
2023-01-01T21:37:28.981Z,0
2023-01-01T21:39:35.852Z,0
2023-01-01T21:41:41.957Z,0
2023-01-01T21:42:44.661Z,0
2023-01-01T21:43:47.686Z,0
2023-01-01T21:44:50.415Z,0
2023-01-01T21:47:03.675Z,0
2023-01-01T21:48:07.132Z,0
2023-01-01T21:50:13.122Z,0
2023-01-01T21:51:16.572Z,0
2023-01-01T21:53:23.314Z,0
2023-01-01T21:55:29.778Z,0
2023-01-01T21:56:32.900Z,0
2023-01-01T21:58:38.736Z,0
2023-01-01T22:00:45.456Z,0
2023-01-01T22:01:49.287Z,0
2023-01-01T22:03:57.475Z,0
2023-01-01T22:06:03.699Z,0
2023-01-01T22:08:00.206Z,0
2023-01-01T22:09:04.089Z,0
2023-01-01T22:10:08.174Z,0
2023-01-01T22:12:14.785Z,0
2023-01-01T22:14:20.688Z,0
2023-01-01T22:15:23.444Z,0
2023-01-01T22:16:27.088Z,0
2023-01-01T22:17:39.099Z,0
2023-01-01T22:19:45.214Z,0
2023-01-01T22:21:51.970Z,0
2023-01-01T22:23:04.922Z,0
2023-01-01T22:25:11.769Z,0
2023-01-01T22:27:17.756Z,0
2023-01-01T22:28:20.455Z,0
2023-01-01T22:29:23.832Z,0
2023-01-01T22:30:26.295Z,0
2023-01-01T22:32:32.786Z,0
2023-01-01T22:33:35.795Z,0
2023-01-01T22:35:42.476Z,0
2023-01-01T22:37:57.806Z,0
2023-01-01T22:40:04.396Z,0
2023-01-01T22:41:08.164Z,0
2023-01-01T22:43:14.708Z,0
2023-01-01T22:45:20.555Z,0
2023-01-01T22:46:24.146Z,0
2023-01-01T22:48:30.247Z,0
2023-01-01T22:50:36.365Z,0
2023-01-01T22:51:38.917Z,0
2023-01-01T22:53:44.771Z,0
2023-01-01T22:55:51.799Z,0
2023-01-01T22:57:58.905Z,0
2023-01-01T22:59:02.289Z,0
2023-01-01T23:01:08.563Z,0
2023-01-01T23:03:15.154Z,0
2023-01-01T23:05:20.486Z,0
2023-01-01T23:06:23.778Z,0
2023-01-01T23:08:29.370Z,0
2023-01-01T23:10:36.543Z,0
2023-01-01T23:12:43.340Z,0
2023-01-01T23:13:46.072Z,0
2023-01-01T23:15:57.874Z,0
2023-01-01T23:17:00.802Z,0
2023-01-01T23:18:04.170Z,0
2023-01-01T23:20:09.410Z,0
2023-01-01T23:21:13.440Z,0
2023-01-01T23:22:16.427Z,0
2023-01-01T23:23:19.709Z,0
2023-01-01T23:25:26.029Z,0
2023-01-01T23:26:28.687Z,0